Ashton, Missouri
Current Conditions -  °F | °C
As of 9:35 PM on Friday 31 Oct 2014 (Local Time) from KEOK Reporting Station
Clear Clear  
Wind Chill: 32°   Ceiling: Unl
Heat Index: 36°   Visibility: 10mi
Dew Point: 21°   Wind: 5mph
Humidity: 56%   Direction: 330°NNW
Pressure: 30.43"   Gusts: NA
Location:  40.513°N, 91.8882°W
Report Text: KEOK 010235Z AUTO 33004KT 10SM CLR 02/M06 A3043 RMK AO2
Loading
Personal Weather Stations






























Interactive Weather Map
Tropical Storm Tracking
New forecast layout! Learn more

10-Day Weather Forecast

Advertisements
Track Severe Weather on mobile